createdAt,value
2018-07-28T00:00:34.913Z,6.37
2018-07-28T00:01:51.950Z,7.47
2018-07-28T00:03:09.273Z,7.20
2018-07-28T00:04:26.948Z,4.87
2018-07-28T00:05:44.727Z,6.47
2018-07-28T00:07:06.986Z,6.00
2018-07-28T00:08:24.155Z,6.90
2018-07-28T00:09:42.078Z,6.67
2018-07-28T00:12:45.059Z,6.43
2018-07-28T00:14:06.683Z,5.83
2018-07-28T00:15:24.333Z,5.87
2018-07-28T00:16:42.542Z,6.23
2018-07-28T00:18:00.074Z,6.50
2018-07-28T00:19:18.739Z,6.63
2018-07-28T00:20:36.359Z,6.07
2018-07-28T00:21:54.450Z,6.03
2018-07-28T00:23:12.070Z,6.00
2018-07-28T00:24:29.723Z,6.00
2018-07-28T00:25:52.281Z,5.97
2018-07-28T00:27:10.020Z,6.10
2018-07-28T00:28:27.650Z,6.50
2018-07-28T00:29:45.531Z,6.50
2018-07-28T00:31:06.264Z,5.40
2018-07-28T00:32:23.751Z,6.67
2018-07-28T00:33:41.913Z,6.20
2018-07-28T00:34:59.673Z,5.93
2018-07-28T00:36:17.658Z,6.17
2018-07-28T00:37:35.259Z,5.90
2018-07-28T00:38:52.716Z,6.37
2018-07-28T00:40:10.924Z,6.10
2018-07-28T00:41:27.948Z,6.03
2018-07-28T00:42:44.785Z,6.03
2018-07-28T00:44:01.381Z,5.40
2018-07-28T00:45:18.379Z,5.77
2018-07-28T00:46:35.373Z,6.63
2018-07-28T00:47:52.881Z,7.37
2018-07-28T00:49:09.401Z,6.67
2018-07-28T00:50:26.409Z,6.33
2018-07-28T00:51:43.179Z,5.20
2018-07-28T00:53:00.132Z,7.00
2018-07-28T00:54:17.056Z,7.33
2018-07-28T00:55:34.054Z,6.73
2018-07-28T00:56:50.585Z,6.33
2018-07-28T00:58:08.105Z,6.00
2018-07-28T00:59:25.305Z,6.53
2018-07-28T01:00:42.496Z,5.93
2018-07-28T01:01:59.176Z,6.10
2018-07-28T01:03:15.870Z,6.80
2018-07-28T01:04:32.620Z,7.20
2018-07-28T01:05:49.528Z,7.40
2018-07-28T01:07:06.163Z,6.27
2018-07-28T01:08:23.324Z,6.37
2018-07-28T01:09:40.265Z,8.20
2018-07-28T01:10:57.100Z,6.63
2018-07-28T01:12:14.255Z,7.03
2018-07-28T01:13:30.897Z,6.57
2018-07-28T01:14:47.703Z,7.80
2018-07-28T01:16:04.712Z,7.10
2018-07-28T01:17:22.072Z,6.20
2018-07-28T01:18:39.290Z,6.83
2018-07-28T01:19:55.736Z,6.40
2018-07-28T01:21:12.660Z,6.60
2018-07-28T01:22:29.545Z,6.70
2018-07-28T01:23:45.924Z,6.80
2018-07-28T01:25:02.949Z,6.87
2018-07-28T01:26:19.916Z,6.30
2018-07-28T01:27:36.622Z,7.60
2018-07-28T01:28:58.832Z,7.27
2018-07-28T01:30:21.670Z,6.73
2018-07-28T01:31:39.132Z,7.07
2018-07-28T01:32:55.705Z,6.10
2018-07-28T01:34:12.713Z,7.77
2018-07-28T01:35:29.864Z,7.50
2018-07-28T01:36:46.976Z,6.90
2018-07-28T01:38:03.560Z,6.67
2018-07-28T01:39:20.444Z,7.33
2018-07-28T01:40:37.384Z,6.50
2018-07-28T01:41:54.284Z,6.47
2018-07-28T01:43:11.084Z,7.33
2018-07-28T01:44:27.636Z,6.40
2018-07-28T01:45:44.383Z,7.90
2018-07-28T01:47:01.277Z,7.90
2018-07-28T01:48:18.269Z,7.40
2018-07-28T01:49:35.779Z,7.10
2018-07-28T01:50:52.396Z,7.33
2018-07-28T01:52:09.404Z,6.70
2018-07-28T01:53:26.201Z,7.20
2018-07-28T01:54:43.420Z,7.00
2018-07-28T01:56:00.160Z,7.70
2018-07-28T01:57:16.928Z,6.90
2018-07-28T01:58:33.697Z,6.80
2018-07-28T01:59:50.553Z,7.60
2018-07-28T02:01:07.404Z,7.03
2018-07-28T02:02:24.284Z,7.00
2018-07-28T02:03:41.724Z,6.87
2018-07-28T02:04:58.524Z,6.87
2018-07-28T02:06:15.492Z,7.13
2018-07-28T02:07:32.388Z,7.27
2018-07-28T02:08:48.989Z,7.03
2018-07-28T02:10:06.184Z,8.33
2018-07-28T02:11:23.859Z,7.90
2018-07-28T02:12:41.374Z,8.03
2018-07-28T02:13:58.204Z,7.33
2018-07-28T02:15:14.701Z,8.47
2018-07-28T02:16:31.584Z,7.30
2018-07-28T02:17:49.135Z,7.17
2018-07-28T02:19:05.968Z,7.33
2018-07-28T02:20:22.911Z,7.30
2018-07-28T02:21:39.509Z,7.20
2018-07-28T02:22:56.390Z,7.87
2018-07-28T02:24:13.348Z,7.20
2018-07-28T02:25:30.008Z,8.80
2018-07-28T02:26:47.100Z,6.50
2018-07-28T02:28:03.794Z,7.87
2018-07-28T02:29:21.206Z,7.70
2018-07-28T02:30:38.036Z,8.63
2018-07-28T02:31:54.968Z,7.47
2018-07-28T02:33:11.660Z,6.97
2018-07-28T02:34:28.424Z,7.60
2018-07-28T02:35:45.193Z,7.37
2018-07-28T02:37:02.126Z,7.73
2018-07-28T02:38:19.561Z,7.87
2018-07-28T02:39:36.438Z,7.33
2018-07-28T02:40:53.075Z,6.87
2018-07-28T02:42:09.808Z,6.60
2018-07-28T02:43:26.259Z,7.87
2018-07-28T02:44:42.847Z,7.20
2018-07-28T02:45:59.823Z,7.80
2018-07-28T02:47:16.348Z,7.60
2018-07-28T02:48:33.307Z,6.70
2018-07-28T02:49:50.061Z,7.23
2018-07-28T02:51:06.725Z,7.20
2018-07-28T02:52:23.636Z,6.83
2018-07-28T02:53:44.013Z,7.03
2018-07-28T02:55:01.253Z,6.50
2018-07-28T02:56:18.140Z,6.70
2018-07-28T02:57:35.118Z,7.63
2018-07-28T02:58:52.628Z,7.70
2018-07-28T03:00:09.787Z,6.97
2018-07-28T03:01:26.297Z,7.53
2018-07-28T03:02:43.060Z,7.70
2018-07-28T03:04:00.632Z,7.80
2018-07-28T03:05:17.238Z,6.80
2018-07-28T03:06:34.034Z,6.50
2018-07-28T03:07:50.985Z,7.20
2018-07-28T03:09:10.313Z,7.63
2018-07-28T03:10:27.367Z,7.90
2018-07-28T03:11:44.381Z,7.20
2018-07-28T03:13:00.841Z,7.77
2018-07-28T03:14:17.928Z,7.63
2018-07-28T03:15:36.452Z,6.47
2018-07-28T03:16:53.520Z,7.50
2018-07-28T03:18:10.201Z,7.60
2018-07-28T03:19:27.111Z,7.57
2018-07-28T03:20:44.145Z,6.60
2018-07-28T03:22:01.822Z,7.40
2018-07-28T03:23:19.257Z,6.97
2018-07-28T03:24:36.173Z,7.20
2018-07-28T03:25:52.565Z,7.10
2018-07-28T03:27:09.621Z,7.27
2018-07-28T03:28:26.412Z,7.87
2018-07-28T03:29:43.534Z,6.70
2018-07-28T03:31:00.245Z,7.57
2018-07-28T03:32:17.129Z,7.63
2018-07-28T03:33:34.009Z,7.67
2018-07-28T03:34:50.708Z,7.40
2018-07-28T03:36:07.345Z,7.23
2018-07-28T03:37:24.101Z,7.60
2018-07-28T03:38:40.920Z,8.07
2018-07-28T03:39:57.935Z,7.50
2018-07-28T03:41:14.878Z,7.00
2018-07-28T03:42:31.304Z,6.40
2018-07-28T03:43:48.490Z,6.23
2018-07-28T03:45:05.936Z,7.53
2018-07-28T03:46:22.951Z,7.43
2018-07-28T03:47:41.064Z,7.50
2018-07-28T03:48:57.580Z,7.77
2018-07-28T03:50:14.584Z,6.00
2018-07-28T03:51:31.553Z,7.23
2018-07-28T03:52:48.489Z,7.20
2018-07-28T03:54:05.608Z,8.10
2018-07-28T03:55:22.332Z,8.10
2018-07-28T03:56:39.128Z,7.07
2018-07-28T03:57:55.633Z,6.73
2018-07-28T03:59:12.806Z,6.67
2018-07-28T04:00:29.605Z,6.50
2018-07-28T04:01:46.367Z,7.97
2018-07-28T04:03:02.908Z,7.10
2018-07-28T04:04:19.884Z,7.43
2018-07-28T04:05:37.108Z,6.07
2018-07-28T04:06:53.676Z,7.50
2018-07-28T04:08:10.203Z,6.77
2018-07-28T04:09:27.112Z,6.33
2018-07-28T04:10:44.145Z,6.47
2018-07-28T04:12:00.643Z,6.83
2018-07-28T04:13:17.573Z,7.20
2018-07-28T04:14:34.102Z,7.50
2018-07-28T04:15:50.906Z,6.43
2018-07-28T04:17:07.908Z,6.73
2018-07-28T04:18:24.735Z,7.10
2018-07-28T04:19:41.585Z,6.80
2018-07-28T04:20:58.217Z,6.90
2018-07-28T04:22:15.181Z,6.73
2018-07-28T04:23:31.818Z,6.80
2018-07-28T04:24:48.828Z,5.87
2018-07-28T04:26:05.824Z,6.00
2018-07-28T04:27:23.243Z,6.70
2018-07-28T04:28:40.273Z,6.60
2018-07-28T04:29:57.132Z,8.03
2018-07-28T04:31:14.076Z,6.20
2018-07-28T04:32:30.635Z,7.00
2018-07-28T04:33:47.744Z,6.73
2018-07-28T04:35:04.453Z,6.50
2018-07-28T04:36:21.357Z,6.97
2018-07-28T04:37:39.060Z,7.33
2018-07-28T04:38:55.838Z,6.90
2018-07-28T04:40:12.996Z,6.03
2018-07-28T04:41:30.161Z,6.67
2018-07-28T04:42:47.184Z,6.83
2018-07-28T04:44:04.758Z,7.20
2018-07-28T04:45:21.813Z,7.30
2018-07-28T04:46:38.401Z,5.87
2018-07-28T04:47:55.116Z,6.93
2018-07-28T04:49:11.815Z,6.20
2018-07-28T04:50:28.957Z,6.00
2018-07-28T04:51:45.460Z,6.03
2018-07-28T04:53:02.216Z,6.33
2018-07-28T04:54:18.837Z,6.63
2018-07-28T04:55:35.328Z,6.80
2018-07-28T04:56:52.528Z,5.80
2018-07-28T04:58:09.144Z,6.57
2018-07-28T04:59:25.874Z,6.60
2018-07-28T05:00:42.879Z,5.87
2018-07-28T05:01:59.487Z,6.53
2018-07-28T05:03:16.220Z,6.40
2018-07-28T05:04:33.353Z,6.83
2018-07-28T05:05:50.682Z,5.33
2018-07-28T05:07:07.561Z,6.47
2018-07-28T05:08:24.052Z,5.60
2018-07-28T05:09:40.857Z,7.17
2018-07-28T05:10:57.619Z,6.30
2018-07-28T05:12:14.031Z,5.57
2018-07-28T05:13:30.892Z,5.90
2018-07-28T05:14:47.640Z,6.33
2018-07-28T05:16:04.831Z,5.73
2018-07-28T05:17:22.399Z,6.00
2018-07-28T05:18:38.925Z,6.80
2018-07-28T05:19:55.360Z,6.03
2018-07-28T05:21:13.138Z,5.90
2018-07-28T05:22:30.376Z,6.70
2018-07-28T05:23:47.259Z,6.77
2018-07-28T05:25:03.880Z,5.43
2018-07-28T05:26:20.765Z,5.33
2018-07-28T05:27:37.516Z,5.87
2018-07-28T05:28:53.995Z,6.37
2018-07-28T05:30:11.746Z,5.83
2018-07-28T05:31:28.980Z,5.80
2018-07-28T05:32:45.758Z,5.80
2018-07-28T05:34:02.722Z,6.30
2018-07-28T05:35:19.885Z,6.37
2018-07-28T05:36:36.601Z,5.67
2018-07-28T05:37:53.429Z,6.27
2018-07-28T05:39:11.726Z,5.50
2018-07-28T05:40:28.992Z,6.43
2018-07-28T05:41:46.520Z,5.53
2018-07-28T05:43:03.516Z,5.60
2018-07-28T05:44:20.504Z,6.57
2018-07-28T05:45:37.476Z,5.37
2018-07-28T05:46:54.046Z,6.63
2018-07-28T05:48:10.668Z,5.60
2018-07-28T05:49:27.197Z,5.30
2018-07-28T05:50:43.650Z,6.83
2018-07-28T05:52:00.653Z,6.40
2018-07-28T05:53:17.649Z,5.70
2018-07-28T05:54:34.449Z,6.23
2018-07-28T05:55:51.784Z,6.63
2018-07-28T05:57:09.922Z,5.40
2018-07-28T05:58:27.939Z,6.10
2018-07-28T05:59:45.445Z,6.40
2018-07-28T06:01:03.656Z,6.10
2018-07-28T06:02:20.813Z,5.50
2018-07-28T06:03:38.548Z,7.40
2018-07-28T06:04:57.823Z,7.43
2018-07-28T06:06:15.225Z,9.40
2018-07-28T06:07:33.377Z,7.80
2018-07-28T06:08:51.663Z,6.73
2018-07-28T06:10:09.273Z,7.97
2018-07-28T06:11:26.503Z,6.20
2018-07-28T06:12:44.388Z,5.43
2018-07-28T06:14:05.386Z,6.40
2018-07-28T06:15:24.418Z,5.87
2018-07-28T06:16:41.773Z,6.10
2018-07-28T06:18:00.076Z,6.30
2018-07-28T06:19:17.962Z,6.67
2018-07-28T06:20:35.841Z,6.30
2018-07-28T06:21:53.323Z,5.27
2018-07-28T06:23:11.143Z,6.50
2018-07-28T06:24:28.620Z,5.70
2018-07-28T06:25:47.035Z,6.07
2018-07-28T06:27:04.813Z,6.40
2018-07-28T06:28:21.775Z,5.67
2018-07-28T06:29:39.446Z,7.60
2018-07-28T06:30:56.931Z,7.10
2018-07-28T06:32:15.269Z,5.20
2018-07-28T06:33:32.264Z,6.17
2018-07-28T06:34:49.009Z,5.90
2018-07-28T06:36:06.128Z,5.90
2018-07-28T06:37:23.504Z,5.17
2018-07-28T06:38:40.336Z,5.60
2018-07-28T06:39:56.984Z,5.27
2018-07-28T06:41:13.949Z,6.13
2018-07-28T06:42:30.720Z,5.63
2018-07-28T06:43:47.241Z,6.20
2018-07-28T06:45:04.552Z,6.27
2018-07-28T06:46:21.931Z,6.40
2018-07-28T06:47:38.773Z,5.07
2018-07-28T06:48:55.484Z,5.77
2018-07-28T06:50:12.597Z,5.60
2018-07-28T06:51:30.041Z,5.80
2018-07-28T06:52:46.931Z,5.30
2018-07-28T06:54:03.636Z,4.87
2018-07-28T06:55:20.323Z,5.57
2018-07-28T06:56:37.053Z,5.37
2018-07-28T06:57:53.737Z,4.90
2018-07-28T06:59:10.484Z,4.90
2018-07-28T07:00:27.401Z,5.50
2018-07-28T07:01:44.385Z,5.13
2018-07-28T07:03:01.013Z,5.77
2018-07-28T07:04:17.770Z,4.77
2018-07-28T07:05:34.528Z,5.63
2018-07-28T07:06:51.326Z,5.90
2018-07-28T07:08:08.270Z,5.53
2018-07-28T07:09:25.060Z,4.40
2018-07-28T07:10:42.567Z,5.87
2018-07-28T07:11:59.201Z,6.17
2018-07-28T07:13:16.169Z,5.23
2018-07-28T07:14:33.036Z,6.60
2018-07-28T07:15:49.794Z,5.17
2018-07-28T07:17:07.399Z,5.80
2018-07-28T07:18:24.154Z,6.17
2018-07-28T07:19:41.020Z,6.60
2018-07-28T07:20:57.809Z,6.30
2018-07-28T07:22:14.648Z,5.80
2018-07-28T07:23:31.252Z,5.60
2018-07-28T07:24:48.223Z,6.37
2018-07-28T07:26:05.028Z,5.63
2018-07-28T07:27:21.980Z,5.37
2018-07-28T07:28:38.423Z,6.37
2018-07-28T07:29:54.927Z,6.70
2018-07-28T07:31:11.902Z,5.30
2018-07-28T07:32:29.439Z,6.30
2018-07-28T07:33:46.117Z,6.10
2018-07-28T07:35:02.761Z,5.67
2018-07-28T07:36:19.421Z,6.00
2018-07-28T07:37:36.200Z,5.67
2018-07-28T07:38:52.920Z,6.10
2018-07-28T07:40:09.813Z,5.53
2018-07-28T07:41:26.772Z,6.40
2018-07-28T07:42:43.777Z,5.70
2018-07-28T07:44:01.112Z,5.03
2018-07-28T07:45:17.760Z,5.47
2018-07-28T07:46:34.355Z,6.93
2018-07-28T07:47:51.030Z,8.60
2018-07-28T07:49:07.941Z,7.30
2018-07-28T07:50:24.293Z,7.50
2018-07-28T07:51:41.262Z,6.60
2018-07-28T07:52:58.157Z,7.37
2018-07-28T07:54:14.908Z,6.40
2018-07-28T07:55:31.634Z,5.63
2018-07-28T07:56:48.717Z,6.83
2018-07-28T07:58:05.348Z,6.37
2018-07-28T07:59:22.150Z,6.30
2018-07-28T08:00:39.025Z,6.20
2018-07-28T08:01:55.548Z,6.20
2018-07-28T08:03:12.373Z,5.40
2018-07-28T08:04:29.493Z,5.90
2018-07-28T08:05:46.109Z,6.40
2018-07-28T08:07:03.013Z,5.37
2018-07-28T08:08:20.060Z,5.67
2018-07-28T08:09:37.625Z,6.00
2018-07-28T08:10:54.409Z,6.07
2018-07-28T08:12:11.200Z,5.90
2018-07-28T08:13:28.085Z,6.60
2018-07-28T08:14:45.625Z,6.60
2018-07-28T08:16:03.558Z,8.60
2018-07-28T08:17:21.031Z,5.53
2018-07-28T08:18:38.672Z,5.60
2018-07-28T08:19:56.236Z,5.83
2018-07-28T08:21:13.505Z,5.70
2018-07-28T08:22:30.241Z,5.90
2018-07-28T08:23:47.166Z,5.67
2018-07-28T08:25:04.635Z,6.37
2018-07-28T08:26:22.048Z,5.37
2018-07-28T08:27:38.564Z,5.90
2018-07-28T08:28:55.340Z,5.97
2018-07-28T08:30:12.140Z,5.60
2018-07-28T08:31:28.895Z,5.90
2018-07-28T08:32:45.622Z,6.30
2018-07-28T08:34:02.744Z,5.70
2018-07-28T08:35:19.698Z,5.67
2018-07-28T08:36:36.708Z,6.00
2018-07-28T08:37:53.949Z,5.40
2018-07-28T08:39:12.905Z,5.40
2018-07-28T08:40:29.553Z,5.97
2018-07-28T08:41:46.277Z,6.47
2018-07-28T08:43:03.051Z,5.50
2018-07-28T08:44:19.984Z,6.13
2018-07-28T08:45:36.809Z,5.90
2018-07-28T08:46:53.914Z,6.20
2018-07-28T08:48:11.448Z,6.47
2018-07-28T08:49:28.206Z,5.80
2018-07-28T08:50:44.876Z,6.23
2018-07-28T08:52:01.850Z,7.40
2018-07-28T08:53:18.993Z,6.20
2018-07-28T08:54:35.785Z,5.63
2018-07-28T08:55:52.633Z,5.80
2018-07-28T08:57:09.497Z,6.00
2018-07-28T08:58:26.268Z,5.50
2018-07-28T08:59:42.996Z,5.80
2018-07-28T09:01:00.000Z,5.57
2018-07-28T09:02:16.810Z,5.57
2018-07-28T09:03:33.216Z,5.60
2018-07-28T09:04:50.150Z,5.97
2018-07-28T09:06:06.700Z,6.20
2018-07-28T09:07:23.442Z,6.00
2018-07-28T09:08:40.452Z,6.00
2018-07-28T09:09:57.066Z,5.73
2018-07-28T09:11:14.113Z,5.43
2018-07-28T09:12:33.574Z,5.00
2018-07-28T09:13:51.284Z,5.70
2018-07-28T09:15:08.867Z,5.53
2018-07-28T09:16:25.734Z,4.43
2018-07-28T09:17:43.341Z,5.17
2018-07-28T09:19:00.472Z,5.07
2018-07-28T09:20:18.001Z,5.27
2018-07-28T09:21:34.714Z,5.20
2018-07-28T09:22:51.377Z,5.83
2018-07-28T09:24:08.016Z,5.30
2018-07-28T09:25:24.852Z,6.00
2018-07-28T09:26:41.708Z,5.50
2018-07-28T09:27:58.528Z,5.20
2018-07-28T09:29:15.424Z,4.70
2018-07-28T09:30:32.225Z,5.47
2018-07-28T09:31:48.776Z,5.80
2018-07-28T09:33:05.665Z,5.30
2018-07-28T09:34:23.084Z,5.27
2018-07-28T09:35:39.973Z,5.37
2018-07-28T09:36:56.654Z,4.97
2018-07-28T09:38:13.245Z,5.27
2018-07-28T09:39:30.220Z,5.90
2018-07-28T09:40:47.108Z,6.20
2018-07-28T09:42:04.125Z,5.50
2018-07-28T09:43:20.556Z,4.50
2018-07-28T09:44:37.610Z,5.30
2018-07-28T09:45:55.228Z,5.67
2018-07-28T09:47:12.566Z,5.53
2018-07-28T09:48:29.555Z,8.03
2018-07-28T09:49:46.176Z,5.73
2018-07-28T09:51:03.172Z,5.10
2018-07-28T09:52:19.857Z,5.50
2018-07-28T09:53:36.864Z,5.37
2018-07-28T09:54:53.772Z,5.70
2018-07-28T09:56:09.897Z,5.40
2018-07-28T09:57:26.578Z,5.40
2018-07-28T09:58:43.721Z,5.80
2018-07-28T10:00:00.390Z,5.40
2018-07-28T10:01:17.476Z,6.03
2018-07-28T10:02:35.185Z,6.00
2018-07-28T10:03:53.521Z,6.20
2018-07-28T10:05:10.938Z,6.30
2018-07-28T10:06:28.399Z,5.93
2018-07-28T10:07:45.251Z,5.90
2018-07-28T10:09:02.152Z,6.07
2018-07-28T10:10:18.675Z,5.23
2018-07-28T10:11:36.021Z,5.80
2018-07-28T10:12:53.200Z,5.03
2018-07-28T10:14:10.189Z,5.30
2018-07-28T10:15:26.775Z,5.33
2018-07-28T10:16:43.809Z,6.30
2018-07-28T10:18:00.929Z,5.47
2018-07-28T10:19:17.890Z,6.60
2018-07-28T10:20:34.450Z,5.07
2018-07-28T10:21:51.591Z,4.77
2018-07-28T10:23:09.209Z,6.20
2018-07-28T10:24:26.127Z,5.10
2018-07-28T10:25:42.744Z,5.73
2018-07-28T10:26:59.642Z,5.87
2018-07-28T10:28:16.508Z,7.03
2018-07-28T10:29:33.181Z,5.67
2018-07-28T10:30:50.313Z,5.30
2018-07-28T10:32:07.655Z,4.97
2018-07-28T10:33:24.756Z,6.63
2018-07-28T10:34:42.325Z,6.03
2018-07-28T10:35:59.624Z,6.30
2018-07-28T10:37:16.780Z,6.57
2018-07-28T10:38:34.376Z,6.10
2018-07-28T10:39:51.336Z,6.40
2018-07-28T10:41:07.939Z,5.20
2018-07-28T10:42:24.900Z,5.50
2018-07-28T10:43:42.110Z,5.47
2018-07-28T10:44:58.792Z,6.63
2018-07-28T10:46:19.188Z,5.80
2018-07-28T10:47:36.637Z,4.80
2018-07-28T10:48:53.374Z,5.57
2018-07-28T10:50:10.580Z,6.00
2018-07-28T10:51:27.877Z,6.37
2018-07-28T10:52:44.858Z,5.67
2018-07-28T10:54:01.558Z,5.60
2018-07-28T10:55:18.415Z,5.47
2018-07-28T10:56:34.972Z,5.67
2018-07-28T10:57:52.037Z,5.77
2018-07-28T10:59:08.708Z,6.60
2018-07-28T11:00:25.656Z,6.23
2018-07-28T11:01:42.624Z,6.17
2018-07-28T11:02:59.515Z,7.00
2018-07-28T11:04:16.286Z,6.30
2018-07-28T11:05:33.157Z,5.10
2018-07-28T11:06:49.993Z,5.20
2018-07-28T11:08:06.793Z,5.60
2018-07-28T11:09:23.528Z,5.70
2018-07-28T11:10:40.500Z,6.90
2018-07-28T11:11:57.042Z,7.37
2018-07-28T11:13:13.653Z,7.60
2018-07-28T11:14:30.593Z,6.37
2018-07-28T11:15:47.339Z,6.17
2018-07-28T11:17:04.392Z,6.43
2018-07-28T11:18:22.068Z,6.87
2018-07-28T11:19:38.771Z,7.10
2018-07-28T11:20:55.837Z,5.83
2018-07-28T11:22:12.594Z,6.13
2018-07-28T11:23:40.529Z,5.93
2018-07-28T11:24:58.191Z,5.90
2018-07-28T11:26:15.880Z,6.17
2018-07-28T11:27:32.422Z,5.90
2018-07-28T11:28:49.397Z,5.70
2018-07-28T11:30:07.506Z,5.23
2018-07-28T11:31:36.439Z,5.63
2018-07-28T11:33:04.609Z,5.83
2018-07-28T11:34:33.325Z,5.80
2018-07-28T11:36:02.329Z,6.10
2018-07-28T11:38:02.554Z,6.10
2018-07-28T11:39:31.348Z,5.67
2018-07-28T11:40:59.996Z,6.10
2018-07-28T11:42:28.993Z,5.17
2018-07-28T11:43:58.021Z,6.20
2018-07-28T11:45:16.936Z,5.30
2018-07-28T11:46:34.422Z,6.60
2018-07-28T11:47:51.139Z,6.03
2018-07-28T11:49:08.008Z,6.60
2018-07-28T11:50:25.197Z,6.20
2018-07-28T11:51:42.001Z,5.63
2018-07-28T11:52:58.700Z,7.03
2018-07-28T11:54:15.352Z,6.17
2018-07-28T11:55:32.376Z,5.80
2018-07-28T11:56:49.216Z,5.73
2018-07-28T11:58:05.812Z,7.03
2018-07-28T11:59:22.777Z,6.10
2018-07-28T12:00:39.626Z,6.10
2018-07-28T12:01:56.197Z,5.80
2018-07-28T12:03:13.164Z,6.80
2018-07-28T12:04:30.014Z,6.03
2018-07-28T12:05:46.841Z,7.30
2018-07-28T12:07:03.580Z,6.00
2018-07-28T12:08:20.348Z,6.23
2018-07-28T12:09:37.198Z,6.90
2018-07-28T12:10:53.845Z,6.17
2018-07-28T12:12:10.856Z,6.67
2018-07-28T12:13:28.408Z,6.10
2018-07-28T12:14:45.381Z,5.23
2018-07-28T12:16:02.036Z,6.70
2018-07-28T12:17:19.148Z,6.47
2018-07-28T12:18:36.776Z,5.80
2018-07-28T12:19:53.737Z,5.80
2018-07-28T12:21:10.401Z,6.60
2018-07-28T12:22:27.198Z,6.30
2018-07-28T12:23:43.896Z,6.90
2018-07-28T12:25:00.463Z,5.80
2018-07-28T12:26:17.404Z,5.77
2018-07-28T12:27:34.492Z,6.50
2018-07-28T12:28:51.188Z,5.67
2018-07-28T12:30:10.173Z,6.20
2018-07-28T12:31:26.840Z,6.10
2018-07-28T12:32:43.673Z,6.00
2018-07-28T12:34:00.370Z,5.50
2018-07-28T12:35:17.411Z,6.10
2018-07-28T12:36:34.162Z,5.57
2018-07-28T12:37:50.584Z,6.40
2018-07-28T12:39:08.580Z,6.40
2018-07-28T12:40:25.909Z,5.97
2018-07-28T12:41:42.704Z,5.87
2018-07-28T12:42:59.179Z,6.17
2018-07-28T12:44:15.761Z,6.37
2018-07-28T12:45:32.484Z,5.83
2018-07-28T12:46:49.113Z,6.10
2018-07-28T12:48:05.693Z,7.40
2018-07-28T12:49:22.717Z,6.20
2018-07-28T12:50:39.599Z,5.00
2018-07-28T12:51:56.244Z,5.60
2018-07-28T12:53:13.195Z,5.47
2018-07-28T12:54:30.187Z,5.90
2018-07-28T12:55:46.809Z,5.63
2018-07-28T12:57:03.670Z,5.50
2018-07-28T12:58:20.737Z,5.37
2018-07-28T12:59:37.342Z,5.80
2018-07-28T13:00:54.065Z,5.33
2018-07-28T13:02:10.876Z,6.30
2018-07-28T13:03:28.322Z,4.67
2018-07-28T13:04:45.432Z,5.93
2018-07-28T13:06:02.333Z,5.10
2018-07-28T13:07:19.440Z,5.60
2018-07-28T13:08:36.259Z,6.07
2018-07-28T13:09:52.834Z,5.43
2018-07-28T13:11:09.604Z,5.00
2018-07-28T13:12:26.412Z,5.20
2018-07-28T13:13:43.079Z,5.97
2018-07-28T13:15:00.649Z,4.77
2018-07-28T13:16:17.589Z,5.00
2018-07-28T13:17:34.944Z,5.40
2018-07-28T13:18:51.700Z,5.30
2018-07-28T13:20:08.421Z,5.67
2018-07-28T13:21:25.236Z,5.17
2018-07-28T13:22:41.886Z,5.67
2018-07-28T13:23:58.877Z,5.50
2018-07-28T13:25:15.577Z,5.40
2018-07-28T13:26:32.504Z,6.73
2018-07-28T13:27:49.161Z,5.40
2018-07-28T13:29:05.764Z,5.53
2018-07-28T13:30:22.780Z,5.30
2018-07-28T13:31:39.468Z,5.70
2018-07-28T13:32:56.276Z,6.87
2018-07-28T13:34:13.040Z,6.40
2018-07-28T13:35:29.749Z,4.90
2018-07-28T13:36:47.584Z,4.43
2018-07-28T13:38:04.878Z,5.17
2018-07-28T13:39:21.980Z,5.50
2018-07-28T13:40:38.858Z,5.83
2018-07-28T13:41:56.502Z,5.70
2018-07-28T13:43:13.040Z,5.50
2018-07-28T13:44:29.565Z,5.10
2018-07-28T13:45:46.622Z,4.63
2018-07-28T13:47:04.107Z,4.93
2018-07-28T13:48:20.836Z,4.80
2018-07-28T13:49:37.641Z,5.07
2018-07-28T13:50:54.601Z,5.73
2018-07-28T13:52:11.018Z,4.90
2018-07-28T13:53:28.042Z,6.20
2018-07-28T13:54:44.963Z,5.73
2018-07-28T13:56:02.437Z,9.57
2018-07-28T13:57:19.202Z,9.57
2018-07-28T13:58:35.715Z,7.57
2018-07-28T13:59:52.605Z,5.87
2018-07-28T14:01:09.861Z,7.37
2018-07-28T14:02:26.396Z,5.90
2018-07-28T14:03:43.091Z,5.63
2018-07-28T14:04:59.880Z,6.33
2018-07-28T14:06:16.321Z,5.10
2018-07-28T14:07:33.213Z,5.23
2018-07-28T14:08:50.101Z,5.00
2018-07-28T14:10:07.748Z,4.80
2018-07-28T14:11:24.738Z,4.27
2018-07-28T14:12:41.484Z,5.20
2018-07-28T14:13:58.445Z,3.77
2018-07-28T14:15:15.000Z,4.30
2018-07-28T14:16:31.465Z,4.37
2018-07-28T14:17:47.987Z,3.90
2018-07-28T14:19:04.837Z,3.30
2018-07-28T14:20:22.537Z,4.10
2018-07-28T14:21:40.161Z,4.30
2018-07-28T14:22:56.963Z,3.67
2018-07-28T14:24:13.680Z,4.10
2018-07-28T14:25:30.363Z,4.70
2018-07-28T14:26:47.261Z,4.20
2018-07-28T14:28:04.008Z,4.30
2018-07-28T14:29:20.894Z,4.50
2018-07-28T14:30:38.394Z,4.00
2018-07-28T14:31:55.307Z,3.87
2018-07-28T14:33:11.733Z,4.20
2018-07-28T14:34:28.613Z,3.80
2018-07-28T14:35:45.486Z,5.40
2018-07-28T14:37:02.258Z,4.63
2018-07-28T14:38:19.316Z,5.10
2018-07-28T14:39:37.024Z,5.10
2018-07-28T14:40:54.334Z,5.23
2018-07-28T14:42:11.269Z,5.90
2018-07-28T14:43:28.244Z,5.00
2018-07-28T14:44:45.669Z,6.40
2018-07-28T14:46:02.749Z,5.67
2018-07-28T14:47:19.983Z,5.63
2018-07-28T14:48:36.830Z,5.63
2018-07-28T14:49:53.837Z,5.70
2018-07-28T14:51:10.726Z,6.57
2018-07-28T14:52:27.614Z,7.67
2018-07-28T14:53:44.421Z,6.93
2018-07-28T14:55:01.273Z,6.53
2018-07-28T14:56:18.165Z,6.80
2018-07-28T14:57:34.945Z,6.67
2018-07-28T14:58:51.501Z,6.77
2018-07-28T15:00:08.693Z,8.27
2018-07-28T15:01:25.411Z,5.70
2018-07-28T15:02:41.901Z,4.80
2018-07-28T15:03:58.850Z,5.20
2018-07-28T15:05:15.339Z,6.07
2018-07-28T15:06:32.381Z,5.30
2018-07-28T15:07:48.961Z,6.00
2018-07-28T15:09:07.622Z,5.30
2018-07-28T15:10:24.739Z,5.90
2018-07-28T15:11:41.329Z,4.80
2018-07-28T15:12:58.270Z,5.27
2018-07-28T15:14:14.985Z,5.40
2018-07-28T15:15:31.793Z,4.60
2018-07-28T15:16:48.808Z,5.57
2018-07-28T15:18:05.031Z,4.73
2018-07-28T15:19:22.115Z,4.50
2018-07-28T15:20:38.921Z,5.00
2018-07-28T15:21:56.120Z,5.33
2018-07-28T15:23:13.628Z,5.30
2018-07-28T15:24:30.519Z,5.03
2018-07-28T15:25:47.745Z,4.87
2018-07-28T15:27:04.711Z,5.10
2018-07-28T15:28:21.881Z,5.20
2018-07-28T15:29:38.753Z,4.60
2018-07-28T15:30:55.766Z,5.77
2018-07-28T15:32:12.276Z,5.50
2018-07-28T15:33:28.785Z,6.33
2018-07-28T15:34:46.098Z,6.47
2018-07-28T15:36:02.878Z,5.37
2018-07-28T15:37:24.108Z,5.57
2018-07-28T15:38:41.286Z,6.40
2018-07-28T15:39:57.990Z,5.47
2018-07-28T15:41:14.525Z,5.60
2018-07-28T15:42:31.244Z,5.80
2018-07-28T15:43:48.381Z,6.20
2018-07-28T15:45:05.406Z,5.80
2018-07-28T15:46:22.769Z,5.40
2018-07-28T15:47:39.869Z,5.80
2018-07-28T15:48:56.507Z,6.00
2018-07-28T15:50:13.431Z,6.33
2018-07-28T15:51:29.976Z,6.60
2018-07-28T15:52:46.539Z,6.87
2018-07-28T15:54:03.516Z,6.33
2018-07-28T15:55:20.379Z,6.60
2018-07-28T15:56:37.556Z,6.00
2018-07-28T15:57:54.176Z,6.30
2018-07-28T15:59:11.021Z,5.70
2018-07-28T16:00:28.676Z,6.27
2018-07-28T16:01:45.681Z,6.43
2018-07-28T16:03:03.485Z,5.57
2018-07-28T16:04:20.377Z,6.00
2018-07-28T16:05:37.282Z,6.70
2018-07-28T16:06:53.850Z,6.50
2018-07-28T16:08:10.824Z,6.67
2018-07-28T16:09:28.149Z,7.10
2018-07-28T16:10:45.277Z,6.70
2018-07-28T16:12:02.171Z,6.87
2018-07-28T16:13:19.008Z,5.93
2018-07-28T16:14:35.838Z,5.93
2018-07-28T16:15:52.886Z,5.93
2018-07-28T16:17:10.001Z,6.70
2018-07-28T16:18:27.536Z,6.40
2018-07-28T16:19:44.302Z,6.43
2018-07-28T16:21:02.030Z,6.73
2018-07-28T16:22:18.865Z,7.40
2018-07-28T16:23:35.865Z,6.50
2018-07-28T16:24:53.488Z,7.20
2018-07-28T16:26:10.479Z,7.37
2018-07-28T16:27:27.287Z,6.50
2018-07-28T16:28:43.922Z,5.90
2018-07-28T16:30:01.096Z,5.90
2018-07-28T16:31:17.657Z,5.23
2018-07-28T16:32:34.118Z,5.77
2018-07-28T16:33:50.778Z,6.60
2018-07-28T16:35:07.917Z,6.20
2018-07-28T16:36:24.653Z,6.00
2018-07-28T16:37:41.587Z,6.27
2018-07-28T16:38:58.688Z,7.57
2018-07-28T16:40:16.085Z,6.57
2018-07-28T16:41:32.767Z,6.70
2018-07-28T16:42:49.600Z,6.93
2018-07-28T16:44:06.309Z,5.87
2018-07-28T16:45:23.014Z,7.10
2018-07-28T16:46:40.031Z,6.47
2018-07-28T16:47:57.116Z,6.60
2018-07-28T16:49:14.049Z,6.03
2018-07-28T16:50:31.405Z,6.07
2018-07-28T16:51:48.224Z,7.33
2018-07-28T16:53:05.102Z,8.30
2018-07-28T16:54:22.064Z,7.10
2018-07-28T16:55:39.448Z,6.17
2018-07-28T16:56:56.420Z,6.43
2018-07-28T16:58:13.118Z,6.90
2018-07-28T16:59:29.964Z,6.40
2018-07-28T17:00:46.801Z,5.73
2018-07-28T17:02:03.846Z,5.90
2018-07-28T17:03:20.824Z,6.53
2018-07-28T17:04:37.587Z,6.80
2018-07-28T17:05:54.883Z,7.53
2018-07-28T17:07:12.768Z,7.70
2018-07-28T17:08:30.068Z,7.30
2018-07-28T17:09:47.477Z,6.80